CYXQ

Beaver Creek Airport

Beaver Creek, , Canada
METAR CYXQ 232300Z 29008KT 10SM -SN BKN031 OVC062 M08/M12 A2996 RMK SC5SC3 CLIMAT -8.5/-9.7/0.6 CM/0.2 MWE/LAST STFD OBS/NXT 241700Z SLP195
Observed Flight Rules
Feb-23 @ 23:00 UTC (13 hours ago) Visual Flight Rules
Wind Visibility Clouds Conditions
290° at 8 knots 10 miles
  • Broken at 3,100' AGL
  • Overcast at 6,200' AGL
  • Light Snow
Temperatures Readings
Current -8°C / 18°F
Dewpoint -12°C / 10°F
Humidity 73%
Altimeter 29.96" Hg
Pressure 1019.5 hPa
Elevation 649
METAR CYXQ 232300Z 29008KT 10SM -SN BKN031 OVC062 M08/M12 A2996 RMK SC5SC3 CLIMAT -8.5/-9.7/0.6 CM/0.2 MWE/LAST STFD OBS/NXT 241700Z SLP195
Observed Flight Rules
Feb-23 @ 23:00 UTC
(13 hours ago)
VFR
Wind Visibility
290° at 8 knots 10 miles
Clouds
  • Broken at 3,100' AGL
  • Overcast at 6,200' AGL
Conditions
  • Light Snow
Temperature Dewpoint
-8°C / 18°F -12°C / 10°F
Humidity Altimeter Pressure
73% 29.96" Hg 1019.5 hPa